createdAt,value
2023-02-02T00:30:07.026Z,0
2023-02-02T00:30:47.448Z,0
2023-02-02T00:31:27.968Z,0
2023-02-02T00:36:51.999Z,0
2023-02-02T00:37:32.496Z,0
2023-02-02T00:38:13.010Z,0
2023-02-02T00:38:53.529Z,0
2023-02-02T00:39:34.022Z,0
2023-02-02T00:40:14.501Z,0
2023-02-02T00:40:55.007Z,0
2023-02-02T00:41:35.520Z,0
2023-02-02T00:42:15.988Z,0
2023-02-02T00:42:56.538Z,0
2023-02-02T00:50:22.039Z,0
2023-02-02T00:51:02.494Z,0
2023-02-02T00:51:42.981Z,0
2023-02-02T00:52:23.464Z,0
2023-02-02T00:53:04.768Z,0
2023-02-02T00:54:25.712Z,0
2023-02-02T00:55:06.200Z,0
2023-02-02T01:02:31.655Z,0
2023-02-02T01:03:12.113Z,0
2023-02-02T01:03:52.632Z,0
2023-02-02T01:04:33.132Z,0
2023-02-02T01:05:13.627Z,0
2023-02-02T01:05:54.113Z,0
2023-02-02T01:06:34.601Z,0
2023-02-02T01:07:15.101Z,0
2023-02-02T01:07:55.628Z,0
2023-02-02T01:08:36.104Z,0
2023-02-02T01:09:16.592Z,0
2023-02-02T01:16:42.025Z,0
2023-02-02T01:17:22.486Z,0
2023-02-02T01:18:02.977Z,0
2023-02-02T01:18:43.450Z,0
2023-02-02T01:19:23.931Z,0
2023-02-02T01:20:04.449Z,0
2023-02-02T01:20:44.950Z,0
2023-02-02T01:22:05.936Z,0
2023-02-02T01:22:46.410Z,0
2023-02-02T01:30:11.881Z,0
2023-02-02T01:30:52.519Z,0
2023-02-02T01:31:33.196Z,0
2023-02-02T01:32:13.504Z,0
2023-02-02T01:32:53.967Z,0
2023-02-02T01:33:34.457Z,0
2023-02-02T01:34:14.960Z,0
2023-02-02T01:34:55.432Z,0
2023-02-02T01:35:35.960Z,0
2023-02-02T01:36:16.453Z,0
2023-02-02T01:43:42.052Z,0
2023-02-02T01:44:22.554Z,0
2023-02-02T01:45:03.044Z,0
2023-02-02T01:45:43.594Z,0
2023-02-02T01:46:24.090Z,0
2023-02-02T01:47:04.613Z,0
2023-02-02T01:47:45.098Z,0
2023-02-02T01:48:25.543Z,0
2023-02-02T01:49:06.062Z,0
2023-02-02T01:49:46.559Z,0
2023-02-02T01:56:23.751Z,0
2023-02-02T01:57:04.309Z,0
2023-02-02T01:57:44.750Z,0
2023-02-02T02:03:08.730Z,0
2023-02-02T02:03:49.213Z,0
2023-02-02T02:04:29.722Z,0
2023-02-02T02:05:10.242Z,0
2023-02-02T02:05:50.896Z,0
2023-02-02T02:06:31.250Z,0
2023-02-02T02:07:11.746Z,0
2023-02-02T02:07:52.213Z,0
2023-02-02T02:08:32.727Z,0
2023-02-02T02:09:13.191Z,0
2023-02-02T02:16:38.661Z,0
2023-02-02T02:17:19.106Z,0
2023-02-02T02:17:59.587Z,0
2023-02-02T02:18:40.117Z,0
2023-02-02T02:19:20.600Z,0
2023-02-02T02:20:01.094Z,0
2023-02-02T02:20:41.616Z,0
2023-02-02T02:21:22.066Z,0
2023-02-02T02:22:02.528Z,0
2023-02-02T02:22:42.997Z,0
2023-02-02T02:30:48.923Z,0
2023-02-02T02:31:29.425Z,0
2023-02-02T02:32:09.778Z,0
2023-02-02T02:32:50.288Z,0
2023-02-02T02:33:30.782Z,0
2023-02-02T02:34:11.336Z,0
2023-02-02T02:34:51.809Z,0
2023-02-02T02:35:32.321Z,0
2023-02-02T02:36:12.821Z,0
2023-02-02T02:44:18.842Z,0
2023-02-02T02:44:59.275Z,0
2023-02-02T02:45:39.808Z,0
2023-02-02T02:46:20.291Z,0
2023-02-02T02:47:00.803Z,0
2023-02-02T02:47:41.258Z,0
2023-02-02T02:48:21.751Z,0
2023-02-02T02:49:02.248Z,0
2023-02-02T02:49:42.752Z,0
2023-02-02T02:50:23.201Z,0
2023-02-02T02:57:48.678Z,0
2023-02-02T02:58:29.159Z,0
2023-02-02T02:59:09.678Z,0
2023-02-02T02:59:50.127Z,0
2023-02-02T03:00:30.609Z,0
2023-02-02T03:01:11.172Z,0
2023-02-02T03:01:51.656Z,0
2023-02-02T03:03:12.614Z,0
2023-02-02T03:03:53.124Z,0
2023-02-02T03:11:18.612Z,0
2023-02-02T03:11:59.161Z,0
2023-02-02T03:12:39.599Z,0
2023-02-02T03:13:20.109Z,0
2023-02-02T03:14:01.544Z,0
2023-02-02T03:14:42.036Z,0
2023-02-02T03:15:22.699Z,0
2023-02-02T03:16:03.054Z,0
2023-02-02T03:23:28.572Z,0
2023-02-02T03:24:09.055Z,0
2023-02-02T03:24:49.536Z,0
2023-02-02T03:25:29.991Z,0
2023-02-02T03:26:10.507Z,0
2023-02-02T03:26:51.100Z,0
2023-02-02T03:27:31.454Z,0
2023-02-02T03:28:11.985Z,0
2023-02-02T03:28:52.494Z,0
2023-02-02T03:29:32.934Z,0
2023-02-02T03:37:38.820Z,0
2023-02-02T03:38:19.311Z,0
2023-02-02T03:38:59.852Z,0
2023-02-02T03:39:40.331Z,0
2023-02-02T03:41:01.351Z,0
2023-02-02T03:41:41.875Z,0
2023-02-02T03:42:22.370Z,0
2023-02-02T03:43:02.828Z,0
2023-02-02T03:43:43.309Z,0
2023-02-02T03:51:08.780Z,0
2023-02-02T03:51:49.291Z,0
2023-02-02T03:52:29.763Z,0
2023-02-02T03:53:10.254Z,0
2023-02-02T03:53:50.755Z,0
2023-02-02T03:54:31.286Z,0
2023-02-02T03:55:11.874Z,0
2023-02-02T04:00:38.423Z,0
2023-02-02T04:01:18.970Z,0
2023-02-02T04:01:59.424Z,0
2023-02-02T04:02:40.004Z,0
2023-02-02T04:03:20.433Z,0
2023-02-02T04:04:00.980Z,0
2023-02-02T04:04:41.457Z,0
2023-02-02T04:06:02.453Z,0
2023-02-02T04:06:43.049Z,0
2023-02-02T04:14:08.717Z,0
2023-02-02T04:14:49.191Z,0
2023-02-02T04:16:10.252Z,0
2023-02-02T04:16:50.691Z,0
2023-02-02T04:17:31.218Z,0
2023-02-02T04:18:11.666Z,0
2023-02-02T04:18:52.205Z,0
2023-02-02T04:19:32.648Z,0
2023-02-02T04:20:13.122Z,0
2023-02-02T04:27:38.720Z,0
2023-02-02T04:28:19.200Z,0
2023-02-02T04:28:59.709Z,0
2023-02-02T04:29:40.254Z,0
2023-02-02T04:30:20.708Z,0
2023-02-02T04:31:01.363Z,0
2023-02-02T04:31:41.775Z,0
2023-02-02T04:32:22.215Z,0
2023-02-02T04:33:43.190Z,0
2023-02-02T04:39:48.510Z,0
2023-02-02T04:41:09.442Z,0
2023-02-02T04:41:49.993Z,0
2023-02-02T04:42:30.524Z,0
2023-02-02T04:43:10.972Z,0
2023-02-02T04:43:51.497Z,0
2023-02-02T04:44:31.959Z,0
2023-02-02T04:45:12.485Z,0
2023-02-02T04:45:53.064Z,0
2023-02-02T04:52:38.693Z,0
2023-02-02T04:53:19.204Z,0
2023-02-02T04:53:59.723Z,0
2023-02-02T04:54:40.266Z,0
2023-02-02T04:55:21.269Z,0
2023-02-02T04:56:01.776Z,0
2023-02-02T04:56:42.324Z,0
2023-02-02T04:57:22.838Z,0
2023-02-02T04:58:03.347Z,0
2023-02-02T05:04:48.506Z,0
2023-02-02T05:05:28.964Z,0
2023-02-02T05:06:09.461Z,0
2023-02-02T05:06:49.960Z,0
2023-02-02T05:07:30.543Z,0
2023-02-02T05:08:10.965Z,0
2023-02-02T05:08:51.469Z,0
2023-02-02T05:09:31.976Z,0
2023-02-02T05:10:12.472Z,0
2023-02-02T05:11:33.413Z,0
2023-02-02T05:18:18.795Z,0
2023-02-02T05:18:59.933Z,0
2023-02-02T05:19:40.404Z,0
2023-02-02T05:20:20.863Z,0
2023-02-02T05:21:01.370Z,0
2023-02-02T05:21:42.038Z,0
2023-02-02T05:22:22.475Z,0
2023-02-02T05:29:08.663Z,0
2023-02-02T05:29:49.159Z,0
2023-02-02T05:30:31.682Z,0
2023-02-02T05:31:10.721Z,0
2023-02-02T05:31:51.281Z,0
2023-02-02T05:32:31.743Z,0
2023-02-02T05:33:12.254Z,0
2023-02-02T05:33:52.769Z,0
2023-02-02T05:34:33.405Z,0
2023-02-02T05:41:18.725Z,0
2023-02-02T05:41:59.250Z,0
2023-02-02T05:42:40.942Z,0
2023-02-02T05:43:21.705Z,0
2023-02-02T05:44:02.063Z,0
2023-02-02T05:44:42.430Z,0
2023-02-02T05:45:23.322Z,0
2023-02-02T05:52:09.553Z,0
2023-02-02T06:30:36.217Z,0
2023-02-02T06:31:16.748Z,0
2023-02-02T06:31:57.294Z,0
2023-02-02T06:36:40.946Z,0
2023-02-02T06:37:21.447Z,0
2023-02-02T06:38:01.961Z,0
2023-02-02T06:38:42.439Z,0
2023-02-02T06:39:22.943Z,0
2023-02-02T06:40:03.477Z,0
2023-02-02T06:40:43.975Z,0
2023-02-02T06:41:24.603Z,0
2023-02-02T06:42:15.651Z,0
2023-02-02T06:42:45.661Z,0
2023-02-02T06:49:30.909Z,0
2023-02-02T06:50:11.477Z,0
2023-02-02T06:50:52.155Z,0
2023-02-02T06:51:32.666Z,0
2023-02-02T06:52:13.192Z,0
2023-02-02T06:52:53.773Z,0
2023-02-02T06:53:36.019Z,0
2023-02-02T06:58:11.617Z,0
2023-02-02T06:58:52.462Z,0
2023-02-02T06:59:33.016Z,0
2023-02-02T07:02:16.617Z,0
2023-02-02T07:02:57.349Z,0
2023-02-02T07:03:38.170Z,0
2023-02-02T07:04:19.045Z,0
2023-02-02T07:04:59.568Z,0
2023-02-02T07:05:40.230Z,0
2023-02-02T07:06:20.748Z,0
2023-02-02T07:12:32.503Z,0
2023-02-02T07:13:13.096Z,0
2023-02-02T07:13:53.605Z,0
2023-02-02T07:18:37.421Z,0
2023-02-02T07:19:17.976Z,0
2023-02-02T07:19:58.515Z,0
2023-02-02T07:20:39.018Z,0
2023-02-02T07:21:19.708Z,0
2023-02-02T07:22:00.198Z,0
2023-02-02T07:22:40.755Z,0
2023-02-02T07:23:21.238Z,0
2023-02-02T07:24:01.792Z,0
2023-02-02T07:30:47.483Z,0
2023-02-02T07:31:28.047Z,0
2023-02-02T07:32:08.490Z,0
2023-02-02T07:32:49.135Z,0
2023-02-02T07:33:29.609Z,0
2023-02-02T07:34:10.194Z,0
2023-02-02T07:34:50.744Z,0
2023-02-02T07:35:31.485Z,0
2023-02-02T07:36:11.988Z,0
2023-02-02T07:41:37.148Z,0
2023-02-02T07:42:17.634Z,0
2023-02-02T07:42:58.225Z,0
2023-02-02T07:43:38.789Z,0
2023-02-02T07:44:19.311Z,0
2023-02-02T07:44:59.942Z,0
2023-02-02T07:45:40.793Z,0
2023-02-02T07:46:21.045Z,0
2023-02-02T07:47:01.536Z,0
2023-02-02T07:47:42.045Z,0
2023-02-02T07:54:28.351Z,0
2023-02-02T07:55:14.223Z,0
2023-02-02T07:55:48.861Z,0
2023-02-02T07:56:39.038Z,0
2023-02-02T07:57:19.725Z,0
2023-02-02T07:58:00.247Z,0
2023-02-02T08:02:47.385Z,0
2023-02-02T08:03:28.019Z,0
2023-02-02T08:04:08.529Z,0
2023-02-02T08:06:47.393Z,0
2023-02-02T08:07:28.459Z,0
2023-02-02T08:08:08.998Z,0
2023-02-02T08:11:31.856Z,0
2023-02-02T08:12:12.377Z,0
2023-02-02T08:12:53.122Z,0
2023-02-02T08:13:33.792Z,0
2023-02-02T08:14:14.239Z,0
2023-02-02T08:14:54.714Z,0
2023-02-02T08:17:14.027Z,0
2023-02-02T08:17:54.451Z,0
2023-02-02T08:18:36.908Z,0
2023-02-02T08:20:38.594Z,0
2023-02-02T08:21:19.320Z,0
2023-02-02T08:22:00.772Z,0
2023-02-02T08:22:42.333Z,0
2023-02-02T08:25:28.910Z,0
2023-02-02T08:26:12.423Z,0
2023-02-02T08:26:53.100Z,0
2023-02-02T08:27:33.531Z,0
2023-02-02T08:28:14.058Z,0
2023-02-02T08:28:55.034Z,5
2023-02-02T08:29:35.598Z,5
2023-02-02T08:32:17.550Z,0
2023-02-02T08:32:58.129Z,0
2023-02-02T08:33:39.724Z,0
2023-02-02T08:34:59.855Z,0
2023-02-02T08:35:40.415Z,0
2023-02-02T08:36:21.941Z,0
2023-02-02T08:37:02.632Z,0
2023-02-02T08:37:43.223Z,0
2023-02-02T08:38:24.196Z,0
2023-02-02T08:44:00.276Z,0
2023-02-02T08:44:52.906Z,0
2023-02-02T08:46:00.873Z,0
2023-02-02T08:46:44.960Z,0
2023-02-02T08:47:25.504Z,0
2023-02-02T08:48:11.914Z,0
2023-02-02T08:48:47.258Z,0
2023-02-02T08:49:27.884Z,0
2023-02-02T08:50:09.077Z,0
2023-02-02T08:54:45.011Z,0
2023-02-02T08:55:25.836Z,0
2023-02-02T08:56:06.091Z,0
2023-02-02T09:00:49.985Z,0
2023-02-02T09:01:31.335Z,0
2023-02-02T09:02:11.919Z,0
2023-02-02T09:02:52.513Z,0
2023-02-02T09:03:33.051Z,0
2023-02-02T09:04:13.584Z,0
2023-02-02T09:04:54.169Z,0
2023-02-02T09:14:35.220Z,5
2023-02-02T09:15:16.598Z,5
2023-02-02T09:15:57.251Z,5
2023-02-02T09:18:40.610Z,5
2023-02-02T09:19:21.128Z,5
2023-02-02T09:20:01.683Z,5
2023-02-02T09:20:42.213Z,0
2023-02-02T09:21:22.717Z,0
2023-02-02T09:22:03.327Z,0
2023-02-02T09:22:43.945Z,0
2023-02-02T09:28:08.350Z,0
2023-02-02T09:28:48.951Z,0
2023-02-02T09:29:29.649Z,0
2023-02-02T09:30:50.737Z,5
2023-02-02T09:31:31.284Z,5
2023-02-02T09:36:56.643Z,10
2023-02-02T09:37:37.181Z,10
2023-02-02T09:38:18.575Z,10
2023-02-02T09:38:59.117Z,5
2023-02-02T09:39:39.658Z,5
2023-02-02T09:40:20.208Z,5
2023-02-02T09:41:00.743Z,5
2023-02-02T09:41:41.276Z,5
2023-02-02T09:47:06.446Z,5
2023-02-02T09:47:46.978Z,5
2023-02-02T09:48:28.122Z,5
2023-02-02T09:49:08.707Z,10
2023-02-02T09:49:49.322Z,10
2023-02-02T09:50:29.863Z,10
2023-02-02T09:51:10.556Z,5
2023-02-02T09:51:51.202Z,10
2023-02-02T09:56:36.480Z,5
2023-02-02T09:57:17.055Z,5
2023-02-02T09:57:57.701Z,5
2023-02-02T09:58:38.241Z,5
2023-02-02T09:59:21.030Z,5
2023-02-02T09:59:59.450Z,5
2023-02-02T10:00:40.044Z,0
2023-02-02T10:01:20.677Z,0
2023-02-02T10:02:01.299Z,0
2023-02-02T10:07:26.406Z,5
2023-02-02T10:08:06.923Z,5
2023-02-02T10:08:47.680Z,5
2023-02-02T10:09:29.749Z,5
2023-02-02T10:10:11.160Z,10
2023-02-02T10:14:56.608Z,10
2023-02-02T10:15:37.515Z,10
2023-02-02T10:16:17.980Z,10
2023-02-02T10:16:59.333Z,10
2023-02-02T10:17:39.813Z,10
2023-02-02T10:18:20.510Z,10
2023-02-02T10:22:27.108Z,5
2023-02-02T10:23:07.729Z,5
2023-02-02T10:23:48.511Z,5
2023-02-02T10:24:29.516Z,5
2023-02-02T10:25:10.005Z,5
2023-02-02T10:25:50.859Z,5
2023-02-02T10:30:36.370Z,5
2023-02-02T10:31:17.164Z,5
2023-02-02T10:31:58.053Z,5
2023-02-02T10:32:38.673Z,5
2023-02-02T10:33:20.159Z,5
2023-02-02T10:33:59.920Z,5
2023-02-02T10:34:40.661Z,5
2023-02-02T10:39:26.947Z,5
2023-02-02T10:40:08.265Z,5
2023-02-02T10:42:28.057Z,5
2023-02-02T10:43:08.267Z,5
2023-02-02T10:43:49.893Z,5
2023-02-02T10:46:32.873Z,10
2023-02-02T10:47:13.397Z,10
2023-02-02T10:47:54.005Z,10
2023-02-02T10:48:34.503Z,10
2023-02-02T10:49:15.002Z,10
2023-02-02T10:49:56.282Z,10
2023-02-02T10:50:36.170Z,10
2023-02-02T10:51:16.749Z,10
2023-02-02T10:56:42.174Z,10
2023-02-02T10:57:22.683Z,10
2023-02-02T10:58:03.282Z,10
2023-02-02T10:58:44.490Z,10
2023-02-02T10:59:25.088Z,10
2023-02-02T11:00:05.575Z,10
2023-02-02T11:02:45.059Z,10
2023-02-02T11:03:28.641Z,10
2023-02-02T11:04:09.129Z,10
2023-02-02T11:04:50.727Z,15
2023-02-02T11:05:30.498Z,15
2023-02-02T11:08:46.873Z,20
2023-02-02T11:09:29.030Z,20
2023-02-02T11:10:10.076Z,20
2023-02-02T11:10:51.421Z,20
2023-02-02T11:11:33.971Z,20
2023-02-02T11:14:37.138Z,20
2023-02-02T11:15:13.158Z,20
2023-02-02T11:15:53.735Z,15
2023-02-02T11:16:42.423Z,15
2023-02-02T11:17:15.884Z,15
2023-02-02T11:17:56.496Z,15
2023-02-02T11:20:34.830Z,15
2023-02-02T11:24:49.728Z,15
2023-02-02T11:25:42.949Z,15
2023-02-02T11:26:24.308Z,15
2023-02-02T11:27:06.171Z,15
2023-02-02T11:27:47.413Z,10
2023-02-02T11:29:53.740Z,10
2023-02-02T11:30:34.844Z,10
2023-02-02T11:31:15.896Z,10
2023-02-02T11:31:57.964Z,5
2023-02-02T11:34:43.127Z,5
2023-02-02T11:35:24.258Z,5
2023-02-02T11:36:06.222Z,5
2023-02-02T11:36:47.230Z,5
2023-02-02T11:41:30.896Z,5
2023-02-02T11:42:12.093Z,5
2023-02-02T11:42:53.616Z,5
2023-02-02T11:44:16.040Z,5
2023-02-02T11:44:56.591Z,10
2023-02-02T11:45:37.971Z,10
2023-02-02T11:46:18.811Z,10
2023-02-02T11:46:59.419Z,10
2023-02-02T11:51:44.642Z,10
2023-02-02T11:52:25.157Z,10
2023-02-02T11:53:06.190Z,10
2023-02-02T12:32:33.324Z,25
2023-02-02T12:33:14.683Z,25
2023-02-02T12:36:09.607Z,30
2023-02-02T12:36:50.006Z,30
2023-02-02T12:37:30.658Z,30
2023-02-02T12:38:11.118Z,30
2023-02-02T12:40:53.719Z,25
2023-02-02T12:41:34.248Z,30
2023-02-02T12:42:14.802Z,30
2023-02-02T12:42:56.033Z,30
2023-02-02T12:43:36.625Z,30
2023-02-02T12:44:58.348Z,25
2023-02-02T12:48:33.254Z,25
2023-02-02T12:49:14.276Z,30
2023-02-02T12:49:55.491Z,25
2023-02-02T12:51:17.724Z,30
2023-02-02T12:52:01.379Z,30
2023-02-02T12:54:52.511Z,35
2023-02-02T12:55:31.508Z,35
2023-02-02T12:59:54.830Z,35
2023-02-02T13:00:36.383Z,35
2023-02-02T13:01:17.087Z,35
2023-02-02T13:03:18.791Z,30
2023-02-02T13:04:00.146Z,35
2023-02-02T13:04:40.635Z,35
2023-02-02T13:05:21.445Z,35
2023-02-02T13:06:02.011Z,35
2023-02-02T13:06:42.648Z,35
2023-02-02T13:07:23.317Z,35
2023-02-02T13:10:49.057Z,35
2023-02-02T13:11:29.642Z,30
2023-02-02T13:12:10.246Z,30
2023-02-02T13:12:50.835Z,35
2023-02-02T13:13:31.354Z,25
2023-02-02T13:14:11.947Z,30
2023-02-02T13:14:52.457Z,30
2023-02-02T13:15:33.258Z,25
2023-02-02T13:16:13.800Z,25
2023-02-02T13:20:59.316Z,20
2023-02-02T13:21:39.893Z,20
2023-02-02T13:22:20.651Z,15
2023-02-02T13:23:01.259Z,15
2023-02-02T13:23:42.566Z,15
2023-02-02T13:28:28.879Z,25
2023-02-02T13:29:10.657Z,25
2023-02-02T13:29:51.232Z,25
2023-02-02T13:30:31.923Z,20
2023-02-02T13:31:13.189Z,20
2023-02-02T13:31:53.769Z,15
2023-02-02T13:37:19.075Z,15
2023-02-02T13:37:59.637Z,10
2023-02-02T13:38:40.199Z,10
2023-02-02T13:39:20.745Z,10
2023-02-02T13:40:01.370Z,10
2023-02-02T13:40:43.462Z,10
2023-02-02T13:42:49.040Z,10
2023-02-02T13:43:29.589Z,10
2023-02-02T13:44:10.627Z,10
2023-02-02T13:44:51.182Z,10
2023-02-02T13:45:31.866Z,10
2023-02-02T13:46:12.664Z,10
2023-02-02T13:52:59.789Z,20
2023-02-02T13:53:40.348Z,20
2023-02-02T13:54:20.910Z,15
2023-02-02T13:55:01.383Z,15
2023-02-02T13:55:42.840Z,15
2023-02-02T13:56:23.416Z,10
2023-02-02T13:58:25.747Z,10
2023-02-02T13:59:05.567Z,10
2023-02-02T13:59:46.119Z,10
2023-02-02T14:00:26.633Z,10
2023-02-02T14:01:07.354Z,10
2023-02-02T14:01:47.987Z,10
2023-02-02T14:02:28.539Z,10
2023-02-02T14:03:09.028Z,10
2023-02-02T14:03:49.625Z,10
2023-02-02T14:09:33.090Z,10
2023-02-02T14:10:13.509Z,10
2023-02-02T14:10:54.099Z,10
2023-02-02T14:15:05.051Z,15
2023-02-02T14:17:16.302Z,15
2023-02-02T14:17:57.232Z,15
2023-02-02T14:18:38.223Z,15
2023-02-02T14:21:48.694Z,10
2023-02-02T14:22:29.841Z,10
2023-02-02T14:23:11.585Z,10
2023-02-02T14:23:59.686Z,10
2023-02-02T14:26:35.121Z,10
2023-02-02T14:27:15.553Z,5
2023-02-02T14:27:55.963Z,5
2023-02-02T14:31:59.922Z,5
2023-02-02T14:32:40.465Z,5
2023-02-02T14:33:21.096Z,5
2023-02-02T14:34:01.548Z,5
2023-02-02T14:34:42.176Z,5
2023-02-02T14:35:22.813Z,5
2023-02-02T14:36:44.077Z,5
2023-02-02T14:42:09.898Z,5
2023-02-02T14:42:50.450Z,5
2023-02-02T14:43:31.020Z,5
2023-02-02T14:44:11.614Z,5
2023-02-02T14:44:52.163Z,5
2023-02-02T14:45:33.054Z,5
2023-02-02T14:46:13.626Z,5
2023-02-02T14:54:12.971Z,10
2023-02-02T14:54:53.386Z,10
2023-02-02T14:55:34.035Z,10
2023-02-02T14:57:37.496Z,5
2023-02-02T14:58:18.229Z,5
2023-02-02T14:58:58.659Z,5
2023-02-02T14:59:39.299Z,5
2023-02-02T15:00:19.913Z,5
2023-02-02T15:01:00.522Z,5
2023-02-02T15:01:41.251Z,5
2023-02-02T15:02:21.725Z,5
2023-02-02T15:03:02.304Z,5
2023-02-02T15:05:07.596Z,5
2023-02-02T15:05:49.173Z,5
2023-02-02T15:06:29.652Z,5
2023-02-02T15:07:10.234Z,5
2023-02-02T15:07:50.956Z,5
2023-02-02T15:08:31.574Z,5
2023-02-02T15:09:12.229Z,5
2023-02-02T15:13:47.489Z,5
2023-02-02T15:14:30.220Z,5
2023-02-02T15:15:10.836Z,5
2023-02-02T15:16:32.319Z,5
2023-02-02T15:17:12.882Z,5
2023-02-02T15:17:53.455Z,5
2023-02-02T15:18:34.053Z,5
2023-02-02T15:19:55.254Z,5
2023-02-02T15:20:35.815Z,5
2023-02-02T15:21:16.503Z,5
2023-02-02T15:26:33.268Z,10
2023-02-02T15:27:16.572Z,20
2023-02-02T15:27:57.293Z,5
2023-02-02T15:28:37.847Z,5
2023-02-02T15:29:18.593Z,5
2023-02-02T15:29:59.066Z,5
2023-02-02T15:30:39.757Z,5
2023-02-02T15:31:20.414Z,0
2023-02-02T15:32:00.810Z,5
2023-02-02T15:32:41.298Z,0
2023-02-02T15:33:21.862Z,0
2023-02-02T15:34:02.370Z,0
2023-02-02T15:40:48.277Z,0
2023-02-02T15:41:28.811Z,0
2023-02-02T15:42:09.350Z,0
2023-02-02T15:42:49.928Z,0
2023-02-02T15:43:32.001Z,0
2023-02-02T15:44:12.639Z,0
2023-02-02T15:49:37.879Z,0
2023-02-02T15:50:18.370Z,0
2023-02-02T15:50:59.172Z,5
2023-02-02T15:51:39.622Z,0
2023-02-02T15:52:20.076Z,10
2023-02-02T15:53:00.941Z,5
2023-02-02T15:53:41.750Z,5
2023-02-02T15:54:22.272Z,0
2023-02-02T15:55:02.835Z,0
2023-02-02T16:00:28.259Z,0
2023-02-02T16:01:08.663Z,0
2023-02-02T16:01:49.250Z,0
2023-02-02T16:02:29.897Z,0
2023-02-02T16:03:10.445Z,0
2023-02-02T16:03:51.469Z,0
2023-02-02T16:04:32.095Z,0
2023-02-02T16:05:12.636Z,0
2023-02-02T16:11:59.422Z,0
2023-02-02T16:12:40.074Z,0
2023-02-02T16:13:20.556Z,0
2023-02-02T16:14:41.739Z,0
2023-02-02T16:15:22.382Z,0
2023-02-02T16:21:28.005Z,0
2023-02-02T16:22:08.531Z,0
2023-02-02T16:22:49.580Z,0
2023-02-02T16:23:30.120Z,0
2023-02-02T16:24:11.283Z,0
2023-02-02T16:25:32.817Z,0
2023-02-02T16:31:29.200Z,0
2023-02-02T16:32:09.834Z,0
2023-02-02T16:32:50.296Z,0
2023-02-02T16:35:33.937Z,0
2023-02-02T16:36:23.879Z,0
2023-02-02T16:36:54.833Z,0
2023-02-02T16:37:35.345Z,0
2023-02-02T16:38:15.957Z,0
2023-02-02T16:38:56.452Z,0
2023-02-02T16:42:36.154Z,0
2023-02-02T16:43:16.700Z,0
2023-02-02T16:43:57.335Z,0
2023-02-02T16:47:20.641Z,0
2023-02-02T16:48:01.102Z,0
2023-02-02T16:48:41.774Z,0
2023-02-02T16:49:22.331Z,0
2023-02-02T16:50:02.985Z,0
2023-02-02T16:50:43.653Z,0
2023-02-02T16:51:24.211Z,0
2023-02-02T16:52:04.706Z,0
2023-02-02T16:52:45.227Z,0
2023-02-02T17:00:43.185Z,0
2023-02-02T17:01:23.686Z,0
2023-02-02T17:02:04.437Z,0
2023-02-02T17:05:58.577Z,0
2023-02-02T17:06:51.643Z,0
2023-02-02T17:07:19.581Z,0
2023-02-02T17:08:02.981Z,0
2023-02-02T17:08:44.351Z,0
2023-02-02T17:09:25.015Z,0
2023-02-02T17:10:05.763Z,0
2023-02-02T17:10:46.421Z,0
2023-02-02T17:11:27.206Z,0
2023-02-02T17:15:06.838Z,0
2023-02-02T17:15:47.422Z,0
2023-02-02T17:16:28.093Z,0
2023-02-02T17:17:09.378Z,0
2023-02-02T17:19:52.486Z,0
2023-02-02T17:20:32.942Z,0
2023-02-02T17:21:13.740Z,0
2023-02-02T17:21:54.436Z,0
2023-02-02T17:22:34.994Z,0
2023-02-02T17:26:14.201Z,0
2023-02-02T17:26:54.948Z,0
2023-02-02T17:27:35.509Z,0
2023-02-02T17:28:16.025Z,0
2023-02-02T17:32:19.390Z,0
2023-02-02T17:32:59.746Z,0
2023-02-02T17:33:40.343Z,0
2023-02-02T17:34:21.760Z,0
2023-02-02T17:35:02.349Z,0
2023-02-02T17:35:53.494Z,0
2023-02-02T17:36:23.399Z,0
2023-02-02T17:37:03.861Z,0
2023-02-02T17:43:49.097Z,0
2023-02-02T17:44:29.680Z,0
2023-02-02T17:45:10.242Z,0
2023-02-02T17:45:50.907Z,0
2023-02-02T17:46:31.450Z,0
2023-02-02T17:47:11.936Z,0
2023-02-02T17:47:52.529Z,0
2023-02-02T17:48:33.071Z,0
2023-02-02T18:34:19.443Z,0
2023-02-02T18:34:59.920Z,0
2023-02-02T18:35:40.420Z,0
2023-02-02T18:36:21.009Z,0
2023-02-02T18:40:24.222Z,0
2023-02-02T18:41:04.695Z,0
2023-02-02T18:41:45.244Z,0
2023-02-02T18:42:26.405Z,0
2023-02-02T18:43:06.205Z,0
2023-02-02T18:43:46.680Z,0
2023-02-02T18:44:27.164Z,0
2023-02-02T18:45:07.649Z,0
2023-02-02T18:45:48.127Z,0
2023-02-02T18:46:28.729Z,0
2023-02-02T18:53:54.289Z,0
2023-02-02T18:54:34.780Z,0
2023-02-02T18:55:15.291Z,0
2023-02-02T18:55:55.876Z,0
2023-02-02T18:56:36.311Z,0
2023-02-02T18:57:16.787Z,0
2023-02-02T18:57:57.321Z,0
2023-02-02T18:58:37.794Z,0
2023-02-02T18:59:18.323Z,0
2023-02-02T18:59:58.868Z,0
2023-02-02T19:06:44.061Z,0
2023-02-02T19:07:24.583Z,0
2023-02-02T19:08:05.101Z,0
2023-02-02T19:08:45.610Z,0
2023-02-02T19:09:26.122Z,0
2023-02-02T19:10:06.646Z,0
2023-02-02T19:10:47.186Z,0
2023-02-02T19:11:27.705Z,0
2023-02-02T19:12:08.179Z,0
2023-02-02T19:12:48.653Z,0
2023-02-02T19:20:14.289Z,0
2023-02-02T19:20:54.822Z,0
2023-02-02T19:21:35.283Z,0
2023-02-02T19:22:15.751Z,0
2023-02-02T19:22:56.275Z,0
2023-02-02T19:23:36.850Z,0
2023-02-02T19:24:17.425Z,0
2023-02-02T19:24:57.929Z,0
2023-02-02T19:25:38.473Z,0
2023-02-02T19:26:18.986Z,0
2023-02-02T19:32:24.683Z,0
2023-02-02T19:33:04.335Z,0
2023-02-02T19:33:45.107Z,0
2023-02-02T19:34:25.633Z,0
2023-02-02T19:35:06.186Z,0
2023-02-02T19:35:46.644Z,0
2023-02-02T19:36:27.176Z,0
2023-02-02T19:37:07.625Z,0
2023-02-02T19:37:48.182Z,0
2023-02-02T19:38:28.690Z,0
2023-02-02T19:45:54.317Z,0
2023-02-02T19:46:34.817Z,0
2023-02-02T19:47:15.284Z,0
2023-02-02T19:47:55.833Z,0
2023-02-02T19:48:36.319Z,0
2023-02-02T19:49:16.844Z,0
2023-02-02T19:49:57.315Z,0
2023-02-02T19:50:37.844Z,0
2023-02-02T19:51:18.309Z,0
2023-02-02T19:51:58.812Z,0
2023-02-02T19:59:24.382Z,0
2023-02-02T20:00:04.949Z,0
2023-02-02T20:00:45.439Z,0
2023-02-02T20:01:25.959Z,0
2023-02-02T20:02:06.494Z,0
2023-02-02T20:02:47.043Z,0
2023-02-02T20:03:27.604Z,0
2023-02-02T20:04:08.047Z,0
2023-02-02T20:04:48.603Z,0
2023-02-02T20:05:29.112Z,0
2023-02-02T20:12:14.052Z,0
2023-02-02T20:12:54.579Z,0
2023-02-02T20:13:35.073Z,0
2023-02-02T20:14:16.875Z,0
2023-02-02T20:14:56.088Z,0
2023-02-02T20:15:36.611Z,0
2023-02-02T20:16:17.201Z,0
2023-02-02T20:16:57.646Z,0
2023-02-02T20:17:39.102Z,0
2023-02-02T20:24:24.060Z,0
2023-02-02T20:25:04.568Z,0
2023-02-02T20:25:45.107Z,0
2023-02-02T20:26:25.684Z,0
2023-02-02T20:27:06.065Z,0
2023-02-02T20:27:46.575Z,0
2023-02-02T20:28:27.079Z,0
2023-02-02T20:29:07.609Z,0
2023-02-02T20:29:48.097Z,0
2023-02-02T20:30:28.871Z,0
2023-02-02T20:37:54.189Z,0
2023-02-02T20:38:34.721Z,0
2023-02-02T20:39:15.187Z,0
2023-02-02T20:39:55.671Z,0
2023-02-02T20:40:36.174Z,0
2023-02-02T20:41:16.694Z,0
2023-02-02T20:41:57.258Z,0
2023-02-02T20:42:37.804Z,0
2023-02-02T20:43:18.279Z,0
2023-02-02T20:43:58.759Z,0
2023-02-02T20:50:44.055Z,0
2023-02-02T20:51:24.533Z,0
2023-02-02T20:52:05.065Z,0
2023-02-02T20:52:45.590Z,0
2023-02-02T20:53:26.134Z,0
2023-02-02T20:54:06.627Z,0
2023-02-02T20:54:47.107Z,0
2023-02-02T20:55:27.611Z,0
2023-02-02T20:56:08.087Z,0
2023-02-02T20:56:48.593Z,0
2023-02-02T21:02:44.933Z,0
2023-02-02T21:03:25.948Z,0
2023-02-02T21:04:06.970Z,0
2023-02-02T21:05:28.984Z,0
2023-02-02T21:06:10.120Z,0
2023-02-02T21:06:51.114Z,0
2023-02-02T21:07:32.236Z,0
2023-02-02T21:08:13.195Z,0
2023-02-02T21:12:19.161Z,0
2023-02-02T21:13:00.157Z,0
2023-02-02T21:13:41.265Z,0
2023-02-02T21:14:22.322Z,0
2023-02-02T21:15:03.550Z,0
2023-02-02T21:22:08.118Z,0
2023-02-02T21:22:48.673Z,0
2023-02-02T21:23:29.148Z,0
2023-02-02T21:28:12.728Z,0
2023-02-02T21:28:53.255Z,0
2023-02-02T21:29:33.790Z,0
2023-02-02T21:30:14.325Z,0
2023-02-02T21:30:54.948Z,0
2023-02-02T21:31:35.442Z,0
2023-02-02T21:32:16.370Z,0
2023-02-02T21:32:56.848Z,0
2023-02-02T21:33:37.366Z,0
2023-02-02T21:41:02.875Z,0
2023-02-02T21:41:43.364Z,0
2023-02-02T21:42:23.890Z,0
2023-02-02T21:43:04.388Z,0
2023-02-02T21:43:44.924Z,0
2023-02-02T21:44:25.442Z,0
2023-02-02T21:45:05.948Z,0
2023-02-02T21:45:46.467Z,0
2023-02-02T21:46:27.003Z,0
2023-02-02T21:47:07.505Z,0
2023-02-02T21:52:03.736Z,0
2023-02-02T21:52:44.222Z,0
2023-02-02T21:53:24.768Z,0
2023-02-02T21:58:08.688Z,0
2023-02-02T21:58:49.194Z,0
2023-02-02T21:59:29.667Z,0
2023-02-02T22:00:10.162Z,0
2023-02-02T22:00:50.634Z,0
2023-02-02T22:01:31.151Z,0
2023-02-02T22:02:11.622Z,0
2023-02-02T22:02:52.125Z,0
2023-02-02T22:03:32.583Z,0
2023-02-02T22:04:13.077Z,0
2023-02-02T22:11:38.437Z,0
2023-02-02T22:12:18.882Z,0
2023-02-02T22:12:59.377Z,0
2023-02-02T22:13:39.892Z,0
2023-02-02T22:14:20.379Z,0
2023-02-02T22:15:00.853Z,0
2023-02-02T22:15:41.356Z,0
2023-02-02T22:16:21.850Z,0
2023-02-02T22:24:28.443Z,0
2023-02-02T22:25:08.974Z,0
2023-02-02T22:25:49.475Z,0